sensor_id;sensor_type;location;lat;lon;timestamp;temperature;humidity
16441;DHT22;8330;-33.858;151.184;2023-07-30T00:01:16;18.70;99.90
16441;DHT22;8330;-33.858;151.184;2023-07-30T00:03:47;18.70;99.90
16441;DHT22;8330;-33.858;151.184;2023-07-30T00:06:18;18.80;99.90
16441;DHT22;8330;-33.858;151.184;2023-07-30T00:08:49;18.90;99.90
16441;DHT22;8330;-33.858;151.184;2023-07-30T00:11:20;19.10;99.90
16441;DHT22;8330;-33.858;151.184;2023-07-30T00:13:53;19.10;99.90
16441;DHT22;8330;-33.858;151.184;2023-07-30T00:16:26;19.30;99.90
16441;DHT22;8330;-33.858;151.184;2023-07-30T00:18:57;19.40;99.90
16441;DHT22;8330;-33.858;151.184;2023-07-30T00:21:28;19.60;99.90
16441;DHT22;8330;-33.858;151.184;2023-07-30T00:23:59;19.60;99.90
16441;DHT22;8330;-33.858;151.184;2023-07-30T00:26:31;19.70;99.90
16441;DHT22;8330;-33.858;151.184;2023-07-30T00:29:04;19.80;99.90
16441;DHT22;8330;-33.858;151.184;2023-07-30T00:31:36;19.90;99.90
16441;DHT22;8330;-33.858;151.184;2023-07-30T00:34:09;20.10;99.90
16441;DHT22;8330;-33.858;151.184;2023-07-30T00:36:39;20.20;99.90
16441;DHT22;8330;-33.858;151.184;2023-07-30T00:39:10;20.40;99.90
16441;DHT22;8330;-33.858;151.184;2023-07-30T00:41:41;20.40;99.90
16441;DHT22;8330;-33.858;151.184;2023-07-30T00:44:16;20.50;99.90
16441;DHT22;8330;-33.858;151.184;2023-07-30T00:46:49;20.60;99.90
16441;DHT22;8330;-33.858;151.184;2023-07-30T00:49:21;20.60;99.90
16441;DHT22;8330;-33.858;151.184;2023-07-30T00:51:53;20.70;99.90
16441;DHT22;8330;-33.858;151.184;2023-07-30T00:54:26;20.80;99.90
16441;DHT22;8330;-33.858;151.184;2023-07-30T00:56:57;21.00;99.90
16441;DHT22;8330;-33.858;151.184;2023-07-30T00:59:30;21.10;99.90
16441;DHT22;8330;-33.858;151.184;2023-07-30T01:02:02;21.20;99.90
16441;DHT22;8330;-33.858;151.184;2023-07-30T01:04:34;21.30;99.90
16441;DHT22;8330;-33.858;151.184;2023-07-30T01:07:07;21.50;99.90
16441;DHT22;8330;-33.858;151.184;2023-07-30T01:09:37;21.60;99.90
16441;DHT22;8330;-33.858;151.184;2023-07-30T01:12:09;21.70;99.90
16441;DHT22;8330;-33.858;151.184;2023-07-30T01:14:42;21.70;99.90
16441;DHT22;8330;-33.858;151.184;2023-07-30T01:17:13;21.80;99.90
16441;DHT22;8330;-33.858;151.184;2023-07-30T01:19:44;22.00;99.90
16441;DHT22;8330;-33.858;151.184;2023-07-30T01:22:19;22.10;99.90
16441;DHT22;8330;-33.858;151.184;2023-07-30T01:24:50;22.20;99.90
16441;DHT22;8330;-33.858;151.184;2023-07-30T01:27:24;22.20;99.90
16441;DHT22;8330;-33.858;151.184;2023-07-30T01:30:01;22.40;99.90
16441;DHT22;8330;-33.858;151.184;2023-07-30T01:32:34;22.50;99.90
16441;DHT22;8330;-33.858;151.184;2023-07-30T01:35:05;22.60;99.90
16441;DHT22;8330;-33.858;151.184;2023-07-30T01:37:42;22.80;99.90
16441;DHT22;8330;-33.858;151.184;2023-07-30T01:40:14;22.90;99.90
16441;DHT22;8330;-33.858;151.184;2023-07-30T01:42:45;22.90;99.90
16441;DHT22;8330;-33.858;151.184;2023-07-30T01:45:16;23.10;99.90
16441;DHT22;8330;-33.858;151.184;2023-07-30T01:47:47;23.20;99.90
16441;DHT22;8330;-33.858;151.184;2023-07-30T01:50:18;23.20;99.90
16441;DHT22;8330;-33.858;151.184;2023-07-30T01:52:50;23.30;99.90
16441;DHT22;8330;-33.858;151.184;2023-07-30T01:55:21;23.30;99.90
16441;DHT22;8330;-33.858;151.184;2023-07-30T01:57:52;23.40;99.90
16441;DHT22;8330;-33.858;151.184;2023-07-30T02:00:23;23.50;99.90
16441;DHT22;8330;-33.858;151.184;2023-07-30T02:02:54;23.50;99.90
16441;DHT22;8330;-33.858;151.184;2023-07-30T02:05:25;23.50;99.90
16441;DHT22;8330;-33.858;151.184;2023-07-30T02:07:58;23.50;99.90
16441;DHT22;8330;-33.858;151.184;2023-07-30T02:10:31;23.50;99.90
16441;DHT22;8330;-33.858;151.184;2023-07-30T02:13:02;23.60;99.90
16441;DHT22;8330;-33.858;151.184;2023-07-30T02:15:33;23.70;99.90
16441;DHT22;8330;-33.858;151.184;2023-07-30T02:18:04;23.70;99.90
16441;DHT22;8330;-33.858;151.184;2023-07-30T02:20:37;23.80;99.90
16441;DHT22;8330;-33.858;151.184;2023-07-30T02:23:10;23.80;99.90
16441;DHT22;8330;-33.858;151.184;2023-07-30T02:25:41;23.90;99.90
16441;DHT22;8330;-33.858;151.184;2023-07-30T02:28:12;24.00;99.90
16441;DHT22;8330;-33.858;151.184;2023-07-30T02:30:42;24.00;99.90
16441;DHT22;8330;-33.858;151.184;2023-07-30T02:33:13;24.00;99.90
16441;DHT22;8330;-33.858;151.184;2023-07-30T02:35:45;24.00;99.90
16441;DHT22;8330;-33.858;151.184;2023-07-30T02:38:18;24.10;99.90
16441;DHT22;8330;-33.858;151.184;2023-07-30T02:40:51;24.20;99.90
16441;DHT22;8330;-33.858;151.184;2023-07-30T02:43:22;24.20;99.90
16441;DHT22;8330;-33.858;151.184;2023-07-30T02:45:53;24.30;99.50
16441;DHT22;8330;-33.858;151.184;2023-07-30T02:48:26;24.30;99.20
16441;DHT22;8330;-33.858;151.184;2023-07-30T02:50:56;24.30;99.50
16441;DHT22;8330;-33.858;151.184;2023-07-30T02:53:32;24.40;99.10
16441;DHT22;8330;-33.858;151.184;2023-07-30T02:56:03;24.50;98.90
16441;DHT22;8330;-33.858;151.184;2023-07-30T02:58:34;24.50;98.50
16441;DHT22;8330;-33.858;151.184;2023-07-30T03:01:08;24.50;98.80
16441;DHT22;8330;-33.858;151.184;2023-07-30T03:03:39;24.50;97.90
16441;DHT22;8330;-33.858;151.184;2023-07-30T03:06:10;24.60;98.20
16441;DHT22;8330;-33.858;151.184;2023-07-30T03:08:43;24.70;97.50
16441;DHT22;8330;-33.858;151.184;2023-07-30T03:11:15;24.70;96.50
16441;DHT22;8330;-33.858;151.184;2023-07-30T03:13:46;24.70;96.30
16441;DHT22;8330;-33.858;151.184;2023-07-30T03:16:18;24.70;95.60
16441;DHT22;8330;-33.858;151.184;2023-07-30T03:18:49;24.70;95.60
16441;DHT22;8330;-33.858;151.184;2023-07-30T03:21:20;24.70;95.60
16441;DHT22;8330;-33.858;151.184;2023-07-30T03:23:54;24.70;95.00
16441;DHT22;8330;-33.858;151.184;2023-07-30T03:26:25;24.80;95.70
16441;DHT22;8330;-33.858;151.184;2023-07-30T03:28:56;24.70;94.80
16441;DHT22;8330;-33.858;151.184;2023-07-30T03:31:26;24.70;94.10
16441;DHT22;8330;-33.858;151.184;2023-07-30T03:33:58;24.80;94.50
16441;DHT22;8330;-33.858;151.184;2023-07-30T03:36:32;24.70;93.70
16441;DHT22;8330;-33.858;151.184;2023-07-30T03:39:06;24.70;94.30
16441;DHT22;8330;-33.858;151.184;2023-07-30T03:41:38;24.70;93.50
16441;DHT22;8330;-33.858;151.184;2023-07-30T03:44:11;24.70;93.90
16441;DHT22;8330;-33.858;151.184;2023-07-30T03:46:41;24.70;94.20
16441;DHT22;8330;-33.858;151.184;2023-07-30T03:49:14;24.60;94.00
16441;DHT22;8330;-33.858;151.184;2023-07-30T03:51:46;24.70;94.00
16441;DHT22;8330;-33.858;151.184;2023-07-30T03:54:19;24.60;94.20
16441;DHT22;8330;-33.858;151.184;2023-07-30T03:56:50;24.70;94.70
16441;DHT22;8330;-33.858;151.184;2023-07-30T03:59:21;24.80;94.70
16441;DHT22;8330;-33.858;151.184;2023-07-30T04:01:52;24.80;92.00
16441;DHT22;8330;-33.858;151.184;2023-07-30T04:04:23;24.80;93.10
16441;DHT22;8330;-33.858;151.184;2023-07-30T04:06:53;24.90;93.60
16441;DHT22;8330;-33.858;151.184;2023-07-30T04:09:27;24.90;92.70
16441;DHT22;8330;-33.858;151.184;2023-07-30T04:11:58;24.90;92.00
16441;DHT22;8330;-33.858;151.184;2023-07-30T04:14:29;25.00;90.70
16441;DHT22;8330;-33.858;151.184;2023-07-30T04:17:00;25.00;85.90
16441;DHT22;8330;-33.858;151.184;2023-07-30T04:19:31;24.90;84.60
16441;DHT22;8330;-33.858;151.184;2023-07-30T04:22:03;24.90;85.00
16441;DHT22;8330;-33.858;151.184;2023-07-30T04:24:38;25.00;84.30
16441;DHT22;8330;-33.858;151.184;2023-07-30T04:27:09;25.00;80.70
16441;DHT22;8330;-33.858;151.184;2023-07-30T04:29:40;25.00;79.60
16441;DHT22;8330;-33.858;151.184;2023-07-30T04:32:11;25.10;78.20
16441;DHT22;8330;-33.858;151.184;2023-07-30T04:34:42;25.10;79.10
16441;DHT22;8330;-33.858;151.184;2023-07-30T04:37:12;25.10;78.60
16441;DHT22;8330;-33.858;151.184;2023-07-30T04:39:47;25.10;78.40
16441;DHT22;8330;-33.858;151.184;2023-07-30T04:42:18;25.10;78.10
16441;DHT22;8330;-33.858;151.184;2023-07-30T04:44:51;25.10;77.10
16441;DHT22;8330;-33.858;151.184;2023-07-30T04:47:22;25.10;77.80
16441;DHT22;8330;-33.858;151.184;2023-07-30T04:49:53;25.10;76.50
16441;DHT22;8330;-33.858;151.184;2023-07-30T04:52:24;25.00;77.90
16441;DHT22;8330;-33.858;151.184;2023-07-30T04:54:57;24.90;77.20
16441;DHT22;8330;-33.858;151.184;2023-07-30T04:57:28;24.90;77.30
16441;DHT22;8330;-33.858;151.184;2023-07-30T05:00:00;24.90;78.00
16441;DHT22;8330;-33.858;151.184;2023-07-30T05:02:31;24.90;77.30
16441;DHT22;8330;-33.858;151.184;2023-07-30T05:05:02;24.90;77.20
16441;DHT22;8330;-33.858;151.184;2023-07-30T05:07:34;24.90;76.40
16441;DHT22;8330;-33.858;151.184;2023-07-30T05:10:07;24.90;76.40
16441;DHT22;8330;-33.858;151.184;2023-07-30T05:12:39;24.90;76.20
16441;DHT22;8330;-33.858;151.184;2023-07-30T05:15:11;24.90;76.50
16441;DHT22;8330;-33.858;151.184;2023-07-30T05:17:44;24.90;76.20
16441;DHT22;8330;-33.858;151.184;2023-07-30T05:20:16;24.90;76.90
16441;DHT22;8330;-33.858;151.184;2023-07-30T05:22:47;24.90;76.10
16441;DHT22;8330;-33.858;151.184;2023-07-30T05:25:21;24.80;74.80
16441;DHT22;8330;-33.858;151.184;2023-07-30T05:27:52;24.90;74.80
16441;DHT22;8330;-33.858;151.184;2023-07-30T05:30:23;24.90;74.30
16441;DHT22;8330;-33.858;151.184;2023-07-30T05:32:55;24.90;74.10
16441;DHT22;8330;-33.858;151.184;2023-07-30T05:35:25;24.90;73.20
16441;DHT22;8330;-33.858;151.184;2023-07-30T05:37:56;24.90;74.00
16441;DHT22;8330;-33.858;151.184;2023-07-30T05:40:29;25.00;73.50
16441;DHT22;8330;-33.858;151.184;2023-07-30T05:43:00;25.10;73.90
16441;DHT22;8330;-33.858;151.184;2023-07-30T05:45:33;25.10;72.90
16441;DHT22;8330;-33.858;151.184;2023-07-30T05:48:05;25.10;72.70
16441;DHT22;8330;-33.858;151.184;2023-07-30T05:50:36;25.10;72.30
16441;DHT22;8330;-33.858;151.184;2023-07-30T05:53:07;25.10;71.90
16441;DHT22;8330;-33.858;151.184;2023-07-30T05:55:41;25.10;71.20
16441;DHT22;8330;-33.858;151.184;2023-07-30T05:58:12;25.20;70.20
16441;DHT22;8330;-33.858;151.184;2023-07-30T06:00:43;25.20;70.20
16441;DHT22;8330;-33.858;151.184;2023-07-30T06:03:15;25.20;70.40
16441;DHT22;8330;-33.858;151.184;2023-07-30T06:05:47;25.00;69.90
16441;DHT22;8330;-33.858;151.184;2023-07-30T06:08:18;25.10;70.10
16441;DHT22;8330;-33.858;151.184;2023-07-30T06:10:52;25.10;68.50
16441;DHT22;8330;-33.858;151.184;2023-07-30T06:13:24;25.20;69.00
16441;DHT22;8330;-33.858;151.184;2023-07-30T06:15:56;25.20;67.80
16441;DHT22;8330;-33.858;151.184;2023-07-30T06:18:28;25.20;65.70
16441;DHT22;8330;-33.858;151.184;2023-07-30T06:20:59;25.30;63.60
16441;DHT22;8330;-33.858;151.184;2023-07-30T06:23:29;25.30;61.50
16441;DHT22;8330;-33.858;151.184;2023-07-30T06:26:04;25.30;60.50
16441;DHT22;8330;-33.858;151.184;2023-07-30T06:28:36;25.30;59.70
16441;DHT22;8330;-33.858;151.184;2023-07-30T06:31:07;25.50;59.80
16441;DHT22;8330;-33.858;151.184;2023-07-30T06:33:39;25.50;59.10
16441;DHT22;8330;-33.858;151.184;2023-07-30T06:36:11;25.50;58.70
16441;DHT22;8330;-33.858;151.184;2023-07-30T06:38:41;25.50;59.20
16441;DHT22;8330;-33.858;151.184;2023-07-30T06:41:17;25.40;59.20
16441;DHT22;8330;-33.858;151.184;2023-07-30T06:43:49;25.30;58.80
16441;DHT22;8330;-33.858;151.184;2023-07-30T06:46:21;25.20;58.50
16441;DHT22;8330;-33.858;151.184;2023-07-30T06:48:51;25.00;58.30
16441;DHT22;8330;-33.858;151.184;2023-07-30T06:51:25;24.90;58.40
16441;DHT22;8330;-33.858;151.184;2023-07-30T06:53:55;24.80;58.40
16441;DHT22;8330;-33.858;151.184;2023-07-30T06:56:30;24.70;58.60
16441;DHT22;8330;-33.858;151.184;2023-07-30T06:59:05;24.60;58.70
16441;DHT22;8330;-33.858;151.184;2023-07-30T07:01:35;24.50;59.10
16441;DHT22;8330;-33.858;151.184;2023-07-30T07:04:07;24.40;59.40
16441;DHT22;8330;-33.858;151.184;2023-07-30T07:06:39;24.30;59.60
16441;DHT22;8330;-33.858;151.184;2023-07-30T07:09:47;24.20;60.10
16441;DHT22;8330;-33.858;151.184;2023-07-30T07:12:22;24.10;60.60
16441;DHT22;8330;-33.858;151.184;2023-07-30T07:14:54;24.00;60.50
16441;DHT22;8330;-33.858;151.184;2023-07-30T07:17:28;23.90;61.00
16441;DHT22;8330;-33.858;151.184;2023-07-30T07:20:03;23.90;61.30
16441;DHT22;8330;-33.858;151.184;2023-07-30T07:22:38;23.80;61.70
16441;DHT22;8330;-33.858;151.184;2023-07-30T07:25:10;23.80;62.10
16441;DHT22;8330;-33.858;151.184;2023-07-30T07:27:44;23.70;61.80
16441;DHT22;8330;-33.858;151.184;2023-07-30T07:30:17;23.60;62.60
16441;DHT22;8330;-33.858;151.184;2023-07-30T07:32:48;23.60;62.50
16441;DHT22;8330;-33.858;151.184;2023-07-30T07:35:21;23.60;62.90
16441;DHT22;8330;-33.858;151.184;2023-07-30T07:37:53;23.50;63.20
16441;DHT22;8330;-33.858;151.184;2023-07-30T07:40:24;23.50;63.60
16441;DHT22;8330;-33.858;151.184;2023-07-30T07:42:58;23.40;64.10
16441;DHT22;8330;-33.858;151.184;2023-07-30T07:45:29;23.30;64.70
16441;DHT22;8330;-33.858;151.184;2023-07-30T07:48:01;23.20;65.30
16441;DHT22;8330;-33.858;151.184;2023-07-30T07:50:33;23.10;65.80
16441;DHT22;8330;-33.858;151.184;2023-07-30T07:53:04;23.00;66.20
16441;DHT22;8330;-33.858;151.184;2023-07-30T07:55:35;22.90;67.30
16441;DHT22;8330;-33.858;151.184;2023-07-30T07:58:08;22.80;68.80
16441;DHT22;8330;-33.858;151.184;2023-07-30T08:00:39;22.70;70.50
16441;DHT22;8330;-33.858;151.184;2023-07-30T08:03:11;22.60;69.20
16441;DHT22;8330;-33.858;151.184;2023-07-30T08:05:43;22.60;68.30
16441;DHT22;8330;-33.858;151.184;2023-07-30T08:08:14;22.50;68.30
16441;DHT22;8330;-33.858;151.184;2023-07-30T08:10:46;22.40;70.30
16441;DHT22;8330;-33.858;151.184;2023-07-30T08:13:21;22.40;71.80
16441;DHT22;8330;-33.858;151.184;2023-07-30T08:15:52;22.30;72.80
16441;DHT22;8330;-33.858;151.184;2023-07-30T08:18:24;22.20;73.50
16441;DHT22;8330;-33.858;151.184;2023-07-30T08:20:56;22.10;74.30
16441;DHT22;8330;-33.858;151.184;2023-07-30T08:23:27;22.10;73.90
16441;DHT22;8330;-33.858;151.184;2023-07-30T08:25:58;22.00;73.50
16441;DHT22;8330;-33.858;151.184;2023-07-30T08:28:32;21.90;73.50
16441;DHT22;8330;-33.858;151.184;2023-07-30T08:31:03;21.90;74.90
16441;DHT22;8330;-33.858;151.184;2023-07-30T08:33:35;21.80;75.50
16441;DHT22;8330;-33.858;151.184;2023-07-30T08:36:06;21.80;76.70
16441;DHT22;8330;-33.858;151.184;2023-07-30T08:38:36;21.70;77.40
16441;DHT22;8330;-33.858;151.184;2023-07-30T08:41:08;21.70;77.00
16441;DHT22;8330;-33.858;151.184;2023-07-30T08:43:41;21.70;74.60
16441;DHT22;8330;-33.858;151.184;2023-07-30T08:46:12;21.70;73.70
16441;DHT22;8330;-33.858;151.184;2023-07-30T08:48:43;21.70;73.80
16441;DHT22;8330;-33.858;151.184;2023-07-30T08:51:15;21.70;73.60
16441;DHT22;8330;-33.858;151.184;2023-07-30T08:53:48;21.70;74.10
16441;DHT22;8330;-33.858;151.184;2023-07-30T08:56:19;21.70;72.90
16441;DHT22;8330;-33.858;151.184;2023-07-30T08:58:53;21.70;73.50
16441;DHT22;8330;-33.858;151.184;2023-07-30T09:01:30;21.70;73.30
16441;DHT22;8330;-33.858;151.184;2023-07-30T09:04:05;21.80;73.20
16441;DHT22;8330;-33.858;151.184;2023-07-30T09:06:37;21.80;72.90
16441;DHT22;8330;-33.858;151.184;2023-07-30T09:09:10;21.80;73.10
16441;DHT22;8330;-33.858;151.184;2023-07-30T09:11:43;21.80;72.60
16441;DHT22;8330;-33.858;151.184;2023-07-30T09:14:20;21.80;73.00
16441;DHT22;8330;-33.858;151.184;2023-07-30T09:16:57;21.60;73.40
16441;DHT22;8330;-33.858;151.184;2023-07-30T09:19:28;21.60;74.00
16441;DHT22;8330;-33.858;151.184;2023-07-30T09:21:59;21.60;74.50
16441;DHT22;8330;-33.858;151.184;2023-07-30T09:24:30;21.50;74.60
16441;DHT22;8330;-33.858;151.184;2023-07-30T09:27:04;21.50;74.30
16441;DHT22;8330;-33.858;151.184;2023-07-30T09:29:39;21.50;74.70
16441;DHT22;8330;-33.858;151.184;2023-07-30T09:32:24;21.40;74.90
16441;DHT22;8330;-33.858;151.184;2023-07-30T09:34:56;21.30;75.40
16441;DHT22;8330;-33.858;151.184;2023-07-30T09:37:36;21.30;76.00
16441;DHT22;8330;-33.858;151.184;2023-07-30T09:40:08;21.30;76.50
16441;DHT22;8330;-33.858;151.184;2023-07-30T09:42:43;21.30;77.80
16441;DHT22;8330;-33.858;151.184;2023-07-30T09:45:26;21.20;77.10
16441;DHT22;8330;-33.858;151.184;2023-07-30T09:47:58;21.10;77.60
16441;DHT22;8330;-33.858;151.184;2023-07-30T09:50:33;21.00;78.50
16441;DHT22;8330;-33.858;151.184;2023-07-30T09:53:05;20.90;79.50
16441;DHT22;8330;-33.858;151.184;2023-07-30T09:55:36;20.80;79.50
16441;DHT22;8330;-33.858;151.184;2023-07-30T09:58:10;20.80;79.30
16441;DHT22;8330;-33.858;151.184;2023-07-30T10:00:45;20.80;79.30
16441;DHT22;8330;-33.858;151.184;2023-07-30T10:03:17;20.60;80.20
16441;DHT22;8330;-33.858;151.184;2023-07-30T10:05:48;20.60;81.20
16441;DHT22;8330;-33.858;151.184;2023-07-30T10:08:23;20.40;81.50
16441;DHT22;8330;-33.858;151.184;2023-07-30T10:10:55;20.40;82.20
16441;DHT22;8330;-33.858;151.184;2023-07-30T10:13:33;20.40;81.60
16441;DHT22;8330;-33.858;151.184;2023-07-30T10:16:10;20.40;80.90
16441;DHT22;8330;-33.858;151.184;2023-07-30T10:18:43;20.40;81.00
16441;DHT22;8330;-33.858;151.184;2023-07-30T10:21:24;20.40;81.60
16441;DHT22;8330;-33.858;151.184;2023-07-30T10:24:01;20.40;81.90
16441;DHT22;8330;-33.858;151.184;2023-07-30T10:26:34;20.40;81.90
16441;DHT22;8330;-33.858;151.184;2023-07-30T10:29:14;20.40;81.50
16441;DHT22;8330;-33.858;151.184;2023-07-30T10:31:49;20.30;82.30
16441;DHT22;8330;-33.858;151.184;2023-07-30T10:34:21;20.30;82.30
16441;DHT22;8330;-33.858;151.184;2023-07-30T10:36:56;20.20;82.80
16441;DHT22;8330;-33.858;151.184;2023-07-30T10:39:30;20.20;83.00
16441;DHT22;8330;-33.858;151.184;2023-07-30T10:42:02;20.10;83.70
16441;DHT22;8330;-33.858;151.184;2023-07-30T10:44:34;20.10;84.00
16441;DHT22;8330;-33.858;151.184;2023-07-30T10:47:07;20.20;84.50
16441;DHT22;8330;-33.858;151.184;2023-07-30T10:49:39;20.20;84.80
16441;DHT22;8330;-33.858;151.184;2023-07-30T10:52:11;20.10;85.30
16441;DHT22;8330;-33.858;151.184;2023-07-30T10:54:44;20.00;86.20
16441;DHT22;8330;-33.858;151.184;2023-07-30T10:57:15;20.00;86.60
16441;DHT22;8330;-33.858;151.184;2023-07-30T10:59:47;20.00;87.50
16441;DHT22;8330;-33.858;151.184;2023-07-30T11:02:24;20.00;88.40
16441;DHT22;8330;-33.858;151.184;2023-07-30T11:04:56;20.00;88.80
16441;DHT22;8330;-33.858;151.184;2023-07-30T11:07:30;20.00;88.70
16441;DHT22;8330;-33.858;151.184;2023-07-30T11:10:02;20.00;89.50
16441;DHT22;8330;-33.858;151.184;2023-07-30T11:12:41;20.00;89.30
16441;DHT22;8330;-33.858;151.184;2023-07-30T11:15:12;20.00;89.70
16441;DHT22;8330;-33.858;151.184;2023-07-30T11:17:46;19.90;89.90
16441;DHT22;8330;-33.858;151.184;2023-07-30T11:20:24;19.90;90.40
16441;DHT22;8330;-33.858;151.184;2023-07-30T11:22:56;19.80;90.50
16441;DHT22;8330;-33.858;151.184;2023-07-30T11:25:27;19.80;90.90
16441;DHT22;8330;-33.858;151.184;2023-07-30T11:27:58;19.70;90.90
16441;DHT22;8330;-33.858;151.184;2023-07-30T11:30:37;19.60;91.10
16441;DHT22;8330;-33.858;151.184;2023-07-30T11:33:16;19.60;91.40
16441;DHT22;8330;-33.858;151.184;2023-07-30T11:35:49;19.60;91.70
16441;DHT22;8330;-33.858;151.184;2023-07-30T11:38:21;19.40;92.10
16441;DHT22;8330;-33.858;151.184;2023-07-30T11:40:53;19.40;92.60
16441;DHT22;8330;-33.858;151.184;2023-07-30T11:43:24;19.30;93.00
16441;DHT22;8330;-33.858;151.184;2023-07-30T11:46:12;19.20;93.20
16441;DHT22;8330;-33.858;151.184;2023-07-30T11:49:16;19.20;93.40
16441;DHT22;8330;-33.858;151.184;2023-07-30T11:51:49;19.20;93.10
16441;DHT22;8330;-33.858;151.184;2023-07-30T11:54:24;19.20;93.00
16441;DHT22;8330;-33.858;151.184;2023-07-30T11:56:56;19.20;93.00
16441;DHT22;8330;-33.858;151.184;2023-07-30T11:59:28;19.20;93.60
16441;DHT22;8330;-33.858;151.184;2023-07-30T12:02:01;19.10;93.50
16441;DHT22;8330;-33.858;151.184;2023-07-30T12:04:47;19.10;93.80
16441;DHT22;8330;-33.858;151.184;2023-07-30T12:07:24;19.10;93.90
16441;DHT22;8330;-33.858;151.184;2023-07-30T12:10:08;19.20;93.90
16441;DHT22;8330;-33.858;151.184;2023-07-30T12:12:45;19.10;94.00
16441;DHT22;8330;-33.858;151.184;2023-07-30T12:15:17;19.10;94.10
16441;DHT22;8330;-33.858;151.184;2023-07-30T12:17:50;19.10;94.10
16441;DHT22;8330;-33.858;151.184;2023-07-30T12:20:28;19.10;94.50
16441;DHT22;8330;-33.858;151.184;2023-07-30T12:23:00;19.00;94.80
16441;DHT22;8330;-33.858;151.184;2023-07-30T12:25:31;19.00;94.90
16441;DHT22;8330;-33.858;151.184;2023-07-30T12:28:03;18.90;95.20
16441;DHT22;8330;-33.858;151.184;2023-07-30T12:30:39;18.90;95.40
16441;DHT22;8330;-33.858;151.184;2023-07-30T12:33:09;18.90;95.60
16441;DHT22;8330;-33.858;151.184;2023-07-30T12:35:42;18.80;96.30
16441;DHT22;8330;-33.858;151.184;2023-07-30T12:38:14;18.80;96.60
16441;DHT22;8330;-33.858;151.184;2023-07-30T12:40:45;18.70;96.90
16441;DHT22;8330;-33.858;151.184;2023-07-30T12:43:16;18.70;96.70
16441;DHT22;8330;-33.858;151.184;2023-07-30T12:45:50;18.70;97.00
16441;DHT22;8330;-33.858;151.184;2023-07-30T12:48:22;18.70;97.10
16441;DHT22;8330;-33.858;151.184;2023-07-30T12:50:55;18.60;97.20
16441;DHT22;8330;-33.858;151.184;2023-07-30T12:53:27;18.50;97.50
16441;DHT22;8330;-33.858;151.184;2023-07-30T12:55:57;18.50;97.80
16441;DHT22;8330;-33.858;151.184;2023-07-30T12:58:28;18.50;98.00
16441;DHT22;8330;-33.858;151.184;2023-07-30T13:00:59;18.60;97.90
16441;DHT22;8330;-33.858;151.184;2023-07-30T13:03:31;18.60;98.00
16441;DHT22;8330;-33.858;151.184;2023-07-30T13:06:07;18.60;98.20
16441;DHT22;8330;-33.858;151.184;2023-07-30T13:08:39;18.60;98.50
16441;DHT22;8330;-33.858;151.184;2023-07-30T13:11:11;18.50;99.30
16441;DHT22;8330;-33.858;151.184;2023-07-30T13:13:44;18.40;99.90
16441;DHT22;8330;-33.858;151.184;2023-07-30T13:16:27;18.40;99.90
16441;DHT22;8330;-33.858;151.184;2023-07-30T13:18:59;18.30;99.90
16441;DHT22;8330;-33.858;151.184;2023-07-30T13:21:34;18.20;99.90
16441;DHT22;8330;-33.858;151.184;2023-07-30T13:24:06;18.20;99.90
16441;DHT22;8330;-33.858;151.184;2023-07-30T13:26:39;18.20;99.90
16441;DHT22;8330;-33.858;151.184;2023-07-30T13:29:09;18.10;99.90
16441;DHT22;8330;-33.858;151.184;2023-07-30T13:31:40;18.10;99.90
16441;DHT22;8330;-33.858;151.184;2023-07-30T13:34:11;18.10;99.90
16441;DHT22;8330;-33.858;151.184;2023-07-30T13:36:45;18.10;99.90
16441;DHT22;8330;-33.858;151.184;2023-07-30T13:39:16;18.10;99.90
16441;DHT22;8330;-33.858;151.184;2023-07-30T13:41:47;18.20;99.90
16441;DHT22;8330;-33.858;151.184;2023-07-30T13:44:19;18.20;99.90
16441;DHT22;8330;-33.858;151.184;2023-07-30T13:46:51;18.20;99.90
16441;DHT22;8330;-33.858;151.184;2023-07-30T13:49:23;18.10;99.90
16441;DHT22;8330;-33.858;151.184;2023-07-30T13:51:57;18.10;99.90
16441;DHT22;8330;-33.858;151.184;2023-07-30T13:54:28;18.10;99.90
16441;DHT22;8330;-33.858;151.184;2023-07-30T13:57:03;18.10;99.90
16441;DHT22;8330;-33.858;151.184;2023-07-30T13:59:34;18.10;99.90
16441;DHT22;8330;-33.858;151.184;2023-07-30T14:02:07;18.10;99.90
16441;DHT22;8330;-33.858;151.184;2023-07-30T14:04:39;18.10;99.90
16441;DHT22;8330;-33.858;151.184;2023-07-30T14:07:13;18.10;99.90
16441;DHT22;8330;-33.858;151.184;2023-07-30T14:09:44;18.00;99.90
16441;DHT22;8330;-33.858;151.184;2023-07-30T14:12:16;18.00;99.90
16441;DHT22;8330;-33.858;151.184;2023-07-30T14:14:46;18.00;99.90
16441;DHT22;8330;-33.858;151.184;2023-07-30T14:17:18;18.00;99.90
16441;DHT22;8330;-33.858;151.184;2023-07-30T14:19:49;18.00;99.90
16441;DHT22;8330;-33.858;151.184;2023-07-30T14:22:23;17.80;99.90
16441;DHT22;8330;-33.858;151.184;2023-07-30T14:24:56;17.80;99.90
16441;DHT22;8330;-33.858;151.184;2023-07-30T14:27:28;17.80;99.90
16441;DHT22;8330;-33.858;151.184;2023-07-30T14:29:58;17.70;99.90
16441;DHT22;8330;-33.858;151.184;2023-07-30T14:32:30;17.70;99.90
16441;DHT22;8330;-33.858;151.184;2023-07-30T14:35:01;17.70;99.90
16441;DHT22;8330;-33.858;151.184;2023-07-30T14:37:34;17.70;99.90
16441;DHT22;8330;-33.858;151.184;2023-07-30T14:40:06;17.60;99.90
16441;DHT22;8330;-33.858;151.184;2023-07-30T14:42:37;17.50;99.90
16441;DHT22;8330;-33.858;151.184;2023-07-30T14:45:09;17.40;99.90
16441;DHT22;8330;-33.858;151.184;2023-07-30T14:47:40;17.40;99.90
16441;DHT22;8330;-33.858;151.184;2023-07-30T14:50:12;17.30;99.90
16441;DHT22;8330;-33.858;151.184;2023-07-30T14:52:46;17.20;99.90
16441;DHT22;8330;-33.858;151.184;2023-07-30T14:55:17;17.10;99.90
16441;DHT22;8330;-33.858;151.184;2023-07-30T14:57:48;17.00;99.90
16441;DHT22;8330;-33.858;151.184;2023-07-30T15:00:20;16.90;99.90
16441;DHT22;8330;-33.858;151.184;2023-07-30T15:02:51;16.90;99.90
16441;DHT22;8330;-33.858;151.184;2023-07-30T15:05:22;17.00;99.90
16441;DHT22;8330;-33.858;151.184;2023-07-30T15:07:56;17.00;99.90
16441;DHT22;8330;-33.858;151.184;2023-07-30T15:10:27;17.00;99.90
16441;DHT22;8330;-33.858;151.184;2023-07-30T15:12:57;17.10;99.90
16441;DHT22;8330;-33.858;151.184;2023-07-30T15:15:28;17.10;99.90
16441;DHT22;8330;-33.858;151.184;2023-07-30T15:17:59;17.10;99.90
16441;DHT22;8330;-33.858;151.184;2023-07-30T15:20:33;17.10;99.90
16441;DHT22;8330;-33.858;151.184;2023-07-30T15:23:06;17.10;99.90
16441;DHT22;8330;-33.858;151.184;2023-07-30T15:25:39;17.00;99.90
16441;DHT22;8330;-33.858;151.184;2023-07-30T15:28:11;17.00;99.90
16441;DHT22;8330;-33.858;151.184;2023-07-30T15:30:43;17.00;99.90
16441;DHT22;8330;-33.858;151.184;2023-07-30T15:33:15;16.90;99.90
16441;DHT22;8330;-33.858;151.184;2023-07-30T15:35:47;16.90;99.90